sensor_id;sensor_type;location;lat;lon;timestamp;P1;durP1;ratioP1;P2;durP2;ratioP2
3625;SDS011;1827;50.534;8.316;2022-10-16T07:08:37;19.67;;;3.63;;
3625;SDS011;1827;50.534;8.316;2022-10-16T07:11:08;18.53;;;3.77;;
3625;SDS011;1827;50.534;8.316;2022-10-16T07:13:36;21.50;;;3.63;;
3625;SDS011;1827;50.534;8.316;2022-10-16T07:16:16;25.83;;;4.10;;
3625;SDS011;1827;50.534;8.316;2022-10-16T08:05:07;20.43;;;3.20;;
3625;SDS011;1827;50.534;8.316;2022-10-16T08:07:33;16.23;;;2.53;;
3625;SDS011;1827;50.534;8.316;2022-10-16T08:09:58;19.73;;;2.97;;
3625;SDS011;1827;50.534;8.316;2022-10-16T08:12:25;21.03;;;2.70;;
3625;SDS011;1827;50.534;8.316;2022-10-16T08:14:51;25.20;;;3.20;;
3625;SDS011;1827;50.534;8.316;2022-10-16T08:22:12;17.77;;;3.07;;
3625;SDS011;1827;50.534;8.316;2022-10-16T08:24:38;17.97;;;3.17;;
3625;SDS011;1827;50.534;8.316;2022-10-16T08:27:05;22.00;;;2.95;;
3625;SDS011;1827;50.534;8.316;2022-10-16T08:29:31;24.90;;;3.07;;
3625;SDS011;1827;50.534;8.316;2022-10-16T08:31:58;22.80;;;4.33;;
3625;SDS011;1827;50.534;8.316;2022-10-16T08:34:23;20.00;;;4.27;;
3625;SDS011;1827;50.534;8.316;2022-10-16T08:36:52;24.73;;;3.87;;
3625;SDS011;1827;50.534;8.316;2022-10-16T08:39:19;20.03;;;4.20;;
3625;SDS011;1827;50.534;8.316;2022-10-16T08:42:04;22.67;;;5.50;;
3625;SDS011;1827;50.534;8.316;2022-10-16T08:50:43;25.90;;;6.37;;
3625;SDS011;1827;50.534;8.316;2022-10-16T08:53:13;21.90;;;5.37;;
3625;SDS011;1827;50.534;8.316;2022-10-16T08:55:46;31.80;;;6.07;;
3625;SDS011;1827;50.534;8.316;2022-10-16T08:58:49;24.13;;;5.03;;
3625;SDS011;1827;50.534;8.316;2022-10-16T09:01:11;18.00;;;3.00;;
3625;SDS011;1827;50.534;8.316;2022-10-16T09:09:34;22.20;;;1.77;;
3625;SDS011;1827;50.534;8.316;2022-10-16T09:20:18;32.80;;;2.60;;
3625;SDS011;1827;50.534;8.316;2022-10-16T09:23:51;17.63;;;2.33;;
3625;SDS011;1827;50.534;8.316;2022-10-16T09:25:58;24.90;;;2.23;;
3625;SDS011;1827;50.534;8.316;2022-10-16T09:28:24;13.70;;;1.90;;
3625;SDS011;1827;50.534;8.316;2022-10-16T09:30:50;13.07;;;1.70;;
3625;SDS011;1827;50.534;8.316;2022-10-16T09:33:18;29.43;;;2.20;;
3625;SDS011;1827;50.534;8.316;2022-10-16T09:35:50;20.00;;;1.73;;
3625;SDS011;1827;50.534;8.316;2022-10-16T09:38:27;17.80;;;1.50;;
3625;SDS011;1827;50.534;8.316;2022-10-16T09:40:56;13.03;;;1.40;;
3625;SDS011;1827;50.534;8.316;2022-10-16T09:43:24;13.63;;;1.60;;
3625;SDS011;1827;50.534;8.316;2022-10-16T09:45:56;16.97;;;1.60;;
3625;SDS011;1827;50.534;8.316;2022-10-16T09:48:48;16.80;;;1.73;;
3625;SDS011;1827;50.534;8.316;2022-10-16T09:51:35;17.43;;;1.83;;
3625;SDS011;1827;50.534;8.316;2022-10-16T09:56:40;20.13;;;1.90;;
3625;SDS011;1827;50.534;8.316;2022-10-16T09:59:16;22.63;;;2.00;;
3625;SDS011;1827;50.534;8.316;2022-10-16T10:01:48;14.80;;;2.50;;
3625;SDS011;1827;50.534;8.316;2022-10-16T10:04:22;15.27;;;2.13;;
3625;SDS011;1827;50.534;8.316;2022-10-16T10:06:50;17.40;;;2.30;;
3625;SDS011;1827;50.534;8.316;2022-10-16T10:09:42;14.83;;;2.07;;
3625;SDS011;1827;50.534;8.316;2022-10-16T10:14:54;17.73;;;2.70;;
3625;SDS011;1827;50.534;8.316;2022-10-16T10:17:22;17.23;;;2.97;;
3625;SDS011;1827;50.534;8.316;2022-10-16T10:20:33;15.70;;;1.90;;
3625;SDS011;1827;50.534;8.316;2022-10-16T10:22:59;18.07;;;2.10;;
3625;SDS011;1827;50.534;8.316;2022-10-16T10:25:35;13.50;;;1.50;;
3625;SDS011;1827;50.534;8.316;2022-10-16T10:58:46;17.80;;;1.20;;
3625;SDS011;1827;50.534;8.316;2022-10-16T11:06:55;12.43;;;1.10;;
3625;SDS011;1827;50.534;8.316;2022-10-16T11:09:39;17.10;;;1.90;;
3625;SDS011;1827;50.534;8.316;2022-10-16T11:14:57;15.00;;;2.13;;
3625;SDS011;1827;50.534;8.316;2022-10-16T11:17:27;16.93;;;1.50;;
3625;SDS011;1827;50.534;8.316;2022-10-16T11:19:58;11.73;;;1.20;;
3625;SDS011;1827;50.534;8.316;2022-10-16T11:22:42;14.07;;;1.57;;
3625;SDS011;1827;50.534;8.316;2022-10-16T11:25:30;14.43;;;1.53;;
3625;SDS011;1827;50.534;8.316;2022-10-16T11:28:19;12.43;;;1.30;;
3625;SDS011;1827;50.534;8.316;2022-10-16T11:38:53;17.37;;;1.87;;
3625;SDS011;1827;50.534;8.316;2022-10-16T11:46:42;13.47;;;1.20;;
3625;SDS011;1827;50.534;8.316;2022-10-16T11:49:18;12.30;;;1.10;;
3625;SDS011;1827;50.534;8.316;2022-10-16T11:52:01;13.80;;;1.43;;
3625;SDS011;1827;50.534;8.316;2022-10-16T11:57:21;13.07;;;1.10;;
3625;SDS011;1827;50.534;8.316;2022-10-16T11:59:52;15.57;;;1.27;;
3625;SDS011;1827;50.534;8.316;2022-10-16T12:05:12;12.57;;;1.37;;
3625;SDS011;1827;50.534;8.316;2022-10-16T12:08:27;14.17;;;1.27;;
3625;SDS011;1827;50.534;8.316;2022-10-16T12:10:36;12.70;;;1.77;;
3625;SDS011;1827;50.534;8.316;2022-10-16T12:13:04;13.07;;;1.20;;
3625;SDS011;1827;50.534;8.316;2022-10-16T12:15:50;11.57;;;0.90;;
3625;SDS011;1827;50.534;8.316;2022-10-16T12:18:22;13.10;;;1.30;;
3625;SDS011;1827;50.534;8.316;2022-10-16T12:20:56;21.33;;;1.30;;
3625;SDS011;1827;50.534;8.316;2022-10-16T12:23:25;12.60;;;1.20;;
3625;SDS011;1827;50.534;8.316;2022-10-16T12:26:00;16.57;;;1.40;;
3625;SDS011;1827;50.534;8.316;2022-10-16T12:28:31;15.90;;;1.33;;
3625;SDS011;1827;50.534;8.316;2022-10-16T12:30:59;11.70;;;1.13;;
3625;SDS011;1827;50.534;8.316;2022-10-16T12:33:31;15.90;;;1.47;;
3625;SDS011;1827;50.534;8.316;2022-10-16T12:36:11;13.63;;;1.27;;
3625;SDS011;1827;50.534;8.316;2022-10-16T12:38:50;14.90;;;1.27;;
3625;SDS011;1827;50.534;8.316;2022-10-16T12:41:28;13.27;;;1.30;;
3625;SDS011;1827;50.534;8.316;2022-10-16T12:43:54;13.63;;;1.30;;
3625;SDS011;1827;50.534;8.316;2022-10-16T12:46:35;12.23;;;1.10;;
3625;SDS011;1827;50.534;8.316;2022-10-16T12:51:39;12.00;;;1.10;;
3625;SDS011;1827;50.534;8.316;2022-10-16T13:02:45;29.53;;;1.50;;
3625;SDS011;1827;50.534;8.316;2022-10-16T13:05:45;12.70;;;1.10;;
3625;SDS011;1827;50.534;8.316;2022-10-16T13:17:08;15.83;;;1.10;;
3625;SDS011;1827;50.534;8.316;2022-10-16T13:22:35;14.17;;;1.10;;
3625;SDS011;1827;50.534;8.316;2022-10-16T13:28:05;17.10;;;1.53;;
3625;SDS011;1827;50.534;8.316;2022-10-16T13:30:35;12.70;;;1.20;;
3625;SDS011;1827;50.534;8.316;2022-10-16T13:33:07;14.17;;;1.40;;
3625;SDS011;1827;50.534;8.316;2022-10-16T13:35:36;19.63;;;1.60;;
3625;SDS011;1827;50.534;8.316;2022-10-16T13:38:18;12.57;;;1.23;;
3625;SDS011;1827;50.534;8.316;2022-10-16T13:46:05;13.40;;;1.10;;
3625;SDS011;1827;50.534;8.316;2022-10-16T13:48:33;11.43;;;1.00;;
3625;SDS011;1827;50.534;8.316;2022-10-16T13:53:38;12.73;;;1.20;;
3625;SDS011;1827;50.534;8.316;2022-10-16T13:56:06;23.73;;;1.53;;
3625;SDS011;1827;50.534;8.316;2022-10-16T13:58:37;15.10;;;1.03;;
3625;SDS011;1827;50.534;8.316;2022-10-16T14:01:03;24.40;;;1.60;;
3625;SDS011;1827;50.534;8.316;2022-10-16T14:03:31;12.10;;;1.20;;
3625;SDS011;1827;50.534;8.316;2022-10-16T14:06:02;13.07;;;1.20;;
3625;SDS011;1827;50.534;8.316;2022-10-16T14:08:31;19.00;;;1.20;;
3625;SDS011;1827;50.534;8.316;2022-10-16T14:11:01;15.93;;;1.30;;
3625;SDS011;1827;50.534;8.316;2022-10-16T14:13:31;12.40;;;1.20;;
3625;SDS011;1827;50.534;8.316;2022-10-16T14:16:05;21.50;;;1.50;;
3625;SDS011;1827;50.534;8.316;2022-10-16T14:18:33;16.80;;;1.17;;
3625;SDS011;1827;50.534;8.316;2022-10-16T14:21:06;14.53;;;1.37;;
3625;SDS011;1827;50.534;8.316;2022-10-16T14:23:37;19.00;;;1.33;;
3625;SDS011;1827;50.534;8.316;2022-10-16T14:28:33;15.70;;;1.27;;
3625;SDS011;1827;50.534;8.316;2022-10-16T14:31:00;13.13;;;1.20;;
3625;SDS011;1827;50.534;8.316;2022-10-16T14:38:35;14.87;;;1.20;;
3625;SDS011;1827;50.534;8.316;2022-10-16T14:41:03;14.10;;;1.27;;
3625;SDS011;1827;50.534;8.316;2022-10-16T14:43:33;15.63;;;1.30;;
3625;SDS011;1827;50.534;8.316;2022-10-16T14:46:09;21.60;;;1.20;;
3625;SDS011;1827;50.534;8.316;2022-10-16T14:48:48;16.10;;;1.40;;
3625;SDS011;1827;50.534;8.316;2022-10-16T14:51:19;18.90;;;1.53;;
3625;SDS011;1827;50.534;8.316;2022-10-16T14:53:45;20.10;;;1.37;;
3625;SDS011;1827;50.534;8.316;2022-10-16T14:56:23;18.77;;;1.40;;
3625;SDS011;1827;50.534;8.316;2022-10-16T14:58:51;22.30;;;1.33;;
3625;SDS011;1827;50.534;8.316;2022-10-16T15:01:17;12.70;;;1.20;;
3625;SDS011;1827;50.534;8.316;2022-10-16T15:03:44;15.03;;;1.27;;
3625;SDS011;1827;50.534;8.316;2022-10-16T15:06:10;25.53;;;1.40;;
3625;SDS011;1827;50.534;8.316;2022-10-16T15:08:37;15.60;;;1.47;;
3625;SDS011;1827;50.534;8.316;2022-10-16T15:11:04;13.73;;;1.30;;
3625;SDS011;1827;50.534;8.316;2022-10-16T15:13:30;17.60;;;1.87;;
3625;SDS011;1827;50.534;8.316;2022-10-16T15:15:55;20.60;;;1.60;;
3625;SDS011;1827;50.534;8.316;2022-10-16T15:18:21;15.83;;;1.57;;
3625;SDS011;1827;50.534;8.316;2022-10-16T15:20:48;20.33;;;1.63;;
3625;SDS011;1827;50.534;8.316;2022-10-16T15:23:16;14.33;;;1.47;;
3625;SDS011;1827;50.534;8.316;2022-10-16T15:28:13;25.07;;;1.70;;
3625;SDS011;1827;50.534;8.316;2022-10-16T15:30:40;18.63;;;1.30;;
3625;SDS011;1827;50.534;8.316;2022-10-16T15:33:09;14.03;;;1.40;;
3625;SDS011;1827;50.534;8.316;2022-10-16T15:35:39;15.40;;;1.53;;
3625;SDS011;1827;50.534;8.316;2022-10-16T15:38:04;22.27;;;1.57;;
3625;SDS011;1827;50.534;8.316;2022-10-16T15:40:30;17.47;;;1.63;;
3625;SDS011;1827;50.534;8.316;2022-10-16T15:42:56;15.40;;;1.60;;
3625;SDS011;1827;50.534;8.316;2022-10-16T15:45:22;14.63;;;1.80;;
3625;SDS011;1827;50.534;8.316;2022-10-16T15:47:47;15.93;;;1.70;;
3625;SDS011;1827;50.534;8.316;2022-10-16T15:50:15;13.50;;;1.60;;
3625;SDS011;1827;50.534;8.316;2022-10-16T15:52:41;13.57;;;1.60;;
3625;SDS011;1827;50.534;8.316;2022-10-16T15:55:08;25.10;;;1.90;;
3625;SDS011;1827;50.534;8.316;2022-10-16T15:57:35;19.43;;;2.03;;
3625;SDS011;1827;50.534;8.316;2022-10-16T16:00:05;18.37;;;1.77;;
3625;SDS011;1827;50.534;8.316;2022-10-16T16:02:37;15.83;;;1.70;;
3625;SDS011;1827;50.534;8.316;2022-10-16T16:05:03;14.77;;;1.90;;
3625;SDS011;1827;50.534;8.316;2022-10-16T16:07:32;19.90;;;1.90;;
3625;SDS011;1827;50.534;8.316;2022-10-16T16:09:59;16.40;;;2.10;;
3625;SDS011;1827;50.534;8.316;2022-10-16T16:12:25;14.70;;;1.73;;
3625;SDS011;1827;50.534;8.316;2022-10-16T16:14:50;14.40;;;1.83;;
3625;SDS011;1827;50.534;8.316;2022-10-16T16:17:16;13.87;;;1.87;;
3625;SDS011;1827;50.534;8.316;2022-10-16T16:19:43;15.80;;;2.00;;
3625;SDS011;1827;50.534;8.316;2022-10-16T16:22:10;16.67;;;2.10;;
3625;SDS011;1827;50.534;8.316;2022-10-16T16:24:36;16.47;;;1.93;;
3625;SDS011;1827;50.534;8.316;2022-10-16T16:27:01;15.33;;;2.00;;
3625;SDS011;1827;50.534;8.316;2022-10-16T16:29:27;14.50;;;1.80;;
3625;SDS011;1827;50.534;8.316;2022-10-16T16:31:53;15.10;;;1.97;;
3625;SDS011;1827;50.534;8.316;2022-10-16T16:34:25;17.80;;;2.57;;
3625;SDS011;1827;50.534;8.316;2022-10-16T16:36:53;37.60;;;7.83;;
3625;SDS011;1827;50.534;8.316;2022-10-16T16:39:19;76.10;;;20.77;;
3625;SDS011;1827;50.534;8.316;2022-10-16T16:41:45;59.13;;;17.60;;
3625;SDS011;1827;50.534;8.316;2022-10-16T16:44:11;32.90;;;6.43;;
3625;SDS011;1827;50.534;8.316;2022-10-16T16:46:37;33.23;;;4.97;;
3625;SDS011;1827;50.534;8.316;2022-10-16T16:49:05;25.27;;;3.50;;
3625;SDS011;1827;50.534;8.316;2022-10-16T16:51:31;22.97;;;4.00;;
3625;SDS011;1827;50.534;8.316;2022-10-16T16:53:58;27.67;;;3.97;;
3625;SDS011;1827;50.534;8.316;2022-10-16T16:56:24;18.77;;;3.20;;
3625;SDS011;1827;50.534;8.316;2022-10-16T16:58:52;26.33;;;4.00;;
3625;SDS011;1827;50.534;8.316;2022-10-16T17:01:20;29.00;;;6.63;;
3625;SDS011;1827;50.534;8.316;2022-10-16T17:03:47;24.30;;;5.90;;
3625;SDS011;1827;50.534;8.316;2022-10-16T17:06:14;26.90;;;6.30;;
3625;SDS011;1827;50.534;8.316;2022-10-16T17:08:41;27.23;;;5.10;;
3625;SDS011;1827;50.534;8.316;2022-10-16T17:11:11;23.40;;;4.33;;
3625;SDS011;1827;50.534;8.316;2022-10-16T17:13:38;22.57;;;5.33;;
3625;SDS011;1827;50.534;8.316;2022-10-16T17:16:05;22.90;;;4.93;;
3625;SDS011;1827;50.534;8.316;2022-10-16T17:18:32;19.23;;;4.37;;
3625;SDS011;1827;50.534;8.316;2022-10-16T17:21:01;22.03;;;4.20;;
3625;SDS011;1827;50.534;8.316;2022-10-16T17:23:29;24.93;;;5.20;;
3625;SDS011;1827;50.534;8.316;2022-10-16T17:25:55;19.73;;;4.00;;
3625;SDS011;1827;50.534;8.316;2022-10-16T17:28:21;23.23;;;4.00;;
3625;SDS011;1827;50.534;8.316;2022-10-16T17:30:49;29.93;;;4.93;;
3625;SDS011;1827;50.534;8.316;2022-10-16T17:33:15;29.47;;;7.40;;
3625;SDS011;1827;50.534;8.316;2022-10-16T17:35:42;35.50;;;6.07;;
3625;SDS011;1827;50.534;8.316;2022-10-16T17:38:10;28.97;;;8.57;;
3625;SDS011;1827;50.534;8.316;2022-10-16T17:40:37;57.00;;;18.10;;
3625;SDS011;1827;50.534;8.316;2022-10-16T17:43:03;69.57;;;19.37;;
3625;SDS011;1827;50.534;8.316;2022-10-16T17:45:30;37.30;;;12.00;;
3625;SDS011;1827;50.534;8.316;2022-10-16T17:47:59;31.60;;;6.80;;
3625;SDS011;1827;50.534;8.316;2022-10-16T17:50:25;27.43;;;5.57;;
3625;SDS011;1827;50.534;8.316;2022-10-16T17:52:51;24.20;;;5.33;;
3625;SDS011;1827;50.534;8.316;2022-10-16T17:55:17;30.40;;;6.00;;
3625;SDS011;1827;50.534;8.316;2022-10-16T17:57:42;32.07;;;5.57;;
3625;SDS011;1827;50.534;8.316;2022-10-16T18:00:08;27.03;;;8.93;;
3625;SDS011;1827;50.534;8.316;2022-10-16T18:02:35;42.07;;;9.70;;
3625;SDS011;1827;50.534;8.316;2022-10-16T18:05:01;33.40;;;9.40;;
3625;SDS011;1827;50.534;8.316;2022-10-16T18:07:30;25.23;;;6.27;;
3625;SDS011;1827;50.534;8.316;2022-10-16T18:09:56;27.23;;;4.47;;
3625;SDS011;1827;50.534;8.316;2022-10-16T18:12:21;23.33;;;5.50;;
3625;SDS011;1827;50.534;8.316;2022-10-16T18:14:47;21.60;;;6.00;;
3625;SDS011;1827;50.534;8.316;2022-10-16T18:17:13;18.03;;;4.40;;
3625;SDS011;1827;50.534;8.316;2022-10-16T18:19:40;24.80;;;4.53;;
3625;SDS011;1827;50.534;8.316;2022-10-16T18:22:06;27.93;;;4.47;;
3625;SDS011;1827;50.534;8.316;2022-10-16T18:24:32;23.50;;;4.30;;
3625;SDS011;1827;50.534;8.316;2022-10-16T18:26:58;20.30;;;3.37;;
3625;SDS011;1827;50.534;8.316;2022-10-16T18:29:24;20.80;;;3.13;;
3625;SDS011;1827;50.534;8.316;2022-10-16T18:31:51;20.57;;;3.03;;
3625;SDS011;1827;50.534;8.316;2022-10-16T18:34:18;20.60;;;3.50;;
3625;SDS011;1827;50.534;8.316;2022-10-16T18:36:44;18.20;;;4.20;;
3625;SDS011;1827;50.534;8.316;2022-10-16T18:39:10;24.90;;;3.30;;
3625;SDS011;1827;50.534;8.316;2022-10-16T18:41:37;21.00;;;3.37;;
3625;SDS011;1827;50.534;8.316;2022-10-16T18:44:06;23.40;;;3.43;;
3625;SDS011;1827;50.534;8.316;2022-10-16T18:46:34;26.13;;;3.80;;
3625;SDS011;1827;50.534;8.316;2022-10-16T18:49:01;20.20;;;4.20;;
3625;SDS011;1827;50.534;8.316;2022-10-16T18:51:29;28.73;;;6.00;;
3625;SDS011;1827;50.534;8.316;2022-10-16T18:53:59;21.57;;;5.93;;
3625;SDS011;1827;50.534;8.316;2022-10-16T18:56:30;19.70;;;5.47;;
3625;SDS011;1827;50.534;8.316;2022-10-16T18:59:00;20.53;;;5.40;;
3625;SDS011;1827;50.534;8.316;2022-10-16T19:01:28;22.30;;;5.17;;
3625;SDS011;1827;50.534;8.316;2022-10-16T19:04:00;20.90;;;5.37;;
3625;SDS011;1827;50.534;8.316;2022-10-16T19:06:28;27.93;;;5.70;;
3625;SDS011;1827;50.534;8.316;2022-10-16T19:08:57;22.97;;;4.37;;
3625;SDS011;1827;50.534;8.316;2022-10-16T19:11:23;22.40;;;4.40;;
3625;SDS011;1827;50.534;8.316;2022-10-16T19:13:50;24.07;;;4.13;;
3625;SDS011;1827;50.534;8.316;2022-10-16T19:16:20;30.30;;;4.80;;
3625;SDS011;1827;50.534;8.316;2022-10-16T19:18:48;29.60;;;5.80;;
3625;SDS011;1827;50.534;8.316;2022-10-16T19:21:15;23.17;;;5.60;;
3625;SDS011;1827;50.534;8.316;2022-10-16T19:23:41;23.33;;;5.50;;
3625;SDS011;1827;50.534;8.316;2022-10-16T19:26:09;23.43;;;6.30;;
3625;SDS011;1827;50.534;8.316;2022-10-16T19:28:39;33.77;;;6.77;;
3625;SDS011;1827;50.534;8.316;2022-10-16T19:31:06;39.40;;;10.40;;
3625;SDS011;1827;50.534;8.316;2022-10-16T19:33:36;33.60;;;10.00;;
3625;SDS011;1827;50.534;8.316;2022-10-16T19:36:44;27.00;;;8.57;;
3625;SDS011;1827;50.534;8.316;2022-10-16T19:38:56;32.90;;;8.77;;
3625;SDS011;1827;50.534;8.316;2022-10-16T19:41:43;31.20;;;9.27;;
3625;SDS011;1827;50.534;8.316;2022-10-16T19:44:12;26.87;;;8.90;;
3625;SDS011;1827;50.534;8.316;2022-10-16T19:46:39;26.97;;;9.83;;
3625;SDS011;1827;50.534;8.316;2022-10-16T19:49:06;33.63;;;10.70;;
3625;SDS011;1827;50.534;8.316;2022-10-16T19:51:34;39.77;;;9.53;;
3625;SDS011;1827;50.534;8.316;2022-10-16T19:54:04;30.73;;;8.83;;
3625;SDS011;1827;50.534;8.316;2022-10-16T19:56:32;36.90;;;9.50;;
3625;SDS011;1827;50.534;8.316;2022-10-16T19:58:59;26.60;;;8.57;;
3625;SDS011;1827;50.534;8.316;2022-10-16T20:01:26;27.50;;;8.83;;
3625;SDS011;1827;50.534;8.316;2022-10-16T20:03:54;29.53;;;8.80;;
3625;SDS011;1827;50.534;8.316;2022-10-16T20:06:20;27.73;;;9.13;;
3625;SDS011;1827;50.534;8.316;2022-10-16T20:08:46;31.03;;;9.30;;
3625;SDS011;1827;50.534;8.316;2022-10-16T20:11:15;41.40;;;9.10;;
3625;SDS011;1827;50.534;8.316;2022-10-16T20:13:44;37.27;;;8.90;;
3625;SDS011;1827;50.534;8.316;2022-10-16T20:16:11;27.30;;;7.40;;
3625;SDS011;1827;50.534;8.316;2022-10-16T20:18:38;27.60;;;7.37;;
3625;SDS011;1827;50.534;8.316;2022-10-16T20:21:08;34.73;;;7.10;;
3625;SDS011;1827;50.534;8.316;2022-10-16T20:23:34;22.27;;;6.40;;
3625;SDS011;1827;50.534;8.316;2022-10-16T20:26:00;29.83;;;6.40;;
3625;SDS011;1827;50.534;8.316;2022-10-16T20:28:26;21.97;;;6.73;;
3625;SDS011;1827;50.534;8.316;2022-10-16T20:30:51;24.13;;;6.37;;
3625;SDS011;1827;50.534;8.316;2022-10-16T20:33:17;30.50;;;6.60;;
3625;SDS011;1827;50.534;8.316;2022-10-16T20:35:44;32.40;;;6.83;;
3625;SDS011;1827;50.534;8.316;2022-10-16T20:38:12;24.77;;;6.23;;
3625;SDS011;1827;50.534;8.316;2022-10-16T20:40:39;27.63;;;5.90;;
3625;SDS011;1827;50.534;8.316;2022-10-16T20:43:07;24.07;;;6.30;;
3625;SDS011;1827;50.534;8.316;2022-10-16T20:45:36;26.30;;;6.63;;
3625;SDS011;1827;50.534;8.316;2022-10-16T20:48:02;22.80;;;6.60;;
3625;SDS011;1827;50.534;8.316;2022-10-16T20:50:28;27.93;;;5.90;;
3625;SDS011;1827;50.534;8.316;2022-10-16T20:52:56;26.10;;;7.00;;
3625;SDS011;1827;50.534;8.316;2022-10-16T20:55:22;33.63;;;8.80;;
3625;SDS011;1827;50.534;8.316;2022-10-16T20:57:49;25.83;;;7.83;;
3625;SDS011;1827;50.534;8.316;2022-10-16T21:00:15;30.33;;;8.80;;
3625;SDS011;1827;50.534;8.316;2022-10-16T21:02:41;24.70;;;7.93;;
3625;SDS011;1827;50.534;8.316;2022-10-16T21:05:07;21.97;;;7.63;;
3625;SDS011;1827;50.534;8.316;2022-10-16T21:07:32;26.00;;;7.90;;
3625;SDS011;1827;50.534;8.316;2022-10-16T21:09:58;30.63;;;7.00;;
3625;SDS011;1827;50.534;8.316;2022-10-16T21:12:25;26.50;;;7.47;;
3625;SDS011;1827;50.534;8.316;2022-10-16T21:14:51;29.17;;;7.53;;
3625;SDS011;1827;50.534;8.316;2022-10-16T21:17:17;40.87;;;7.60;;
3625;SDS011;1827;50.534;8.316;2022-10-16T21:19:43;44.33;;;8.40;;
3625;SDS011;1827;50.534;8.316;2022-10-16T21:22:09;25.30;;;8.53;;
3625;SDS011;1827;50.534;8.316;2022-10-16T21:24:35;33.50;;;8.10;;
3625;SDS011;1827;50.534;8.316;2022-10-16T21:27:04;32.23;;;8.07;;
3625;SDS011;1827;50.534;8.316;2022-10-16T21:29:30;30.77;;;8.27;;
3625;SDS011;1827;50.534;8.316;2022-10-16T21:31:56;29.17;;;9.40;;
3625;SDS011;1827;50.534;8.316;2022-10-16T21:34:22;67.27;;;15.40;;
3625;SDS011;1827;50.534;8.316;2022-10-16T21:36:48;69.57;;;13.33;;
3625;SDS011;1827;50.534;8.316;2022-10-16T21:39:16;48.60;;;11.43;;
3625;SDS011;1827;50.534;8.316;2022-10-16T21:41:43;58.83;;;13.00;;
3625;SDS011;1827;50.534;8.316;2022-10-16T21:44:11;45.93;;;11.23;;
3625;SDS011;1827;50.534;8.316;2022-10-16T21:46:38;47.13;;;10.63;;
3625;SDS011;1827;50.534;8.316;2022-10-16T21:49:05;31.43;;;10.00;;
3625;SDS011;1827;50.534;8.316;2022-10-16T21:51:36;82.10;;;12.43;;
3625;SDS011;1827;50.534;8.316;2022-10-16T21:54:05;51.23;;;11.50;;
3625;SDS011;1827;50.534;8.316;2022-10-16T21:56:32;36.10;;;10.67;;
3625;SDS011;1827;50.534;8.316;2022-10-16T21:58:58;38.67;;;11.80;;
3625;SDS011;1827;50.534;8.316;2022-10-16T22:01:24;26.80;;;9.37;;
3625;SDS011;1827;50.534;8.316;2022-10-16T22:03:51;31.13;;;8.60;;
3625;SDS011;1827;50.534;8.316;2022-10-16T22:06:19;29.43;;;8.00;;
3625;SDS011;1827;50.534;8.316;2022-10-16T22:08:47;47.63;;;7.93;;
3625;SDS011;1827;50.534;8.316;2022-10-16T22:11:17;65.30;;;10.10;;
3625;SDS011;1827;50.534;8.316;2022-10-16T22:13:47;21.53;;;7.10;;
3625;SDS011;1827;50.534;8.316;2022-10-16T22:16:13;20.83;;;7.07;;
3625;SDS011;1827;50.534;8.316;2022-10-16T22:18:39;41.23;;;6.80;;
3625;SDS011;1827;50.534;8.316;2022-10-16T22:21:05;76.30;;;7.17;;
3625;SDS011;1827;50.534;8.316;2022-10-16T22:23:32;24.83;;;6.73;;
3625;SDS011;1827;50.534;8.316;2022-10-16T22:25:59;143.67;;;8.60;;
3625;SDS011;1827;50.534;8.316;2022-10-16T22:28:26;34.13;;;6.27;;
3625;SDS011;1827;50.534;8.316;2022-10-16T22:30:52;179.47;;;10.50;;
3625;SDS011;1827;50.534;8.316;2022-10-16T22:33:18;60.90;;;7.87;;
3625;SDS011;1827;50.534;8.316;2022-10-16T22:35:44;41.13;;;8.77;;
3625;SDS011;1827;50.534;8.316;2022-10-16T22:38:12;42.10;;;10.23;;
3625;SDS011;1827;50.534;8.316;2022-10-16T22:40:38;175.47;;;13.10;;
3625;SDS011;1827;50.534;8.316;2022-10-16T22:43:04;43.57;;;10.70;;
3625;SDS011;1827;50.534;8.316;2022-10-16T22:45:32;41.77;;;10.47;;
3625;SDS011;1827;50.534;8.316;2022-10-16T22:47:59;55.60;;;10.93;;
3625;SDS011;1827;50.534;8.316;2022-10-16T22:50:25;27.77;;;8.70;;
3625;SDS011;1827;50.534;8.316;2022-10-16T22:52:51;133.53;;;15.40;;
3625;SDS011;1827;50.534;8.316;2022-10-16T22:55:18;52.27;;;10.60;;
3625;SDS011;1827;50.534;8.316;2022-10-16T22:57:44;31.97;;;10.43;;
3625;SDS011;1827;50.534;8.316;2022-10-16T23:00:11;38.37;;;11.60;;
3625;SDS011;1827;50.534;8.316;2022-10-16T23:02:40;132.27;;;14.13;;
3625;SDS011;1827;50.534;8.316;2022-10-16T23:05:06;52.70;;;11.60;;
3625;SDS011;1827;50.534;8.316;2022-10-16T23:07:34;72.80;;;12.60;;
3625;SDS011;1827;50.534;8.316;2022-10-16T23:10:00;31.50;;;10.80;;
3625;SDS011;1827;50.534;8.316;2022-10-16T23:12:27;56.47;;;11.13;;
3625;SDS011;1827;50.534;8.316;2022-10-16T23:14:53;35.70;;;10.00;;
3625;SDS011;1827;50.534;8.316;2022-10-16T23:17:19;96.97;;;11.80;;
3625;SDS011;1827;50.534;8.316;2022-10-16T23:19:45;49.70;;;10.07;;
3625;SDS011;1827;50.534;8.316;2022-10-16T23:22:11;38.53;;;10.90;;
3625;SDS011;1827;50.534;8.316;2022-10-16T23:24:37;41.23;;;12.33;;
3625;SDS011;1827;50.534;8.316;2022-10-16T23:27:03;142.30;;;15.13;;
3625;SDS011;1827;50.534;8.316;2022-10-16T23:29:29;91.50;;;13.00;;
3625;SDS011;1827;50.534;8.316;2022-10-16T23:31:55;58.83;;;10.83;;
3625;SDS011;1827;50.534;8.316;2022-10-16T23:34:21;45.17;;;9.50;;
3625;SDS011;1827;50.534;8.316;2022-10-16T23:36:47;45.73;;;9.10;;
3625;SDS011;1827;50.534;8.316;2022-10-16T23:39:13;31.17;;;9.17;;
3625;SDS011;1827;50.534;8.316;2022-10-16T23:41:38;150.50;;;12.50;;
3625;SDS011;1827;50.534;8.316;2022-10-16T23:44:04;30.87;;;8.60;;
3625;SDS011;1827;50.534;8.316;2022-10-16T23:46:30;57.33;;;10.90;;
3625;SDS011;1827;50.534;8.316;2022-10-16T23:48:56;27.37;;;8.37;;
3625;SDS011;1827;50.534;8.316;2022-10-16T23:51:22;29.13;;;10.10;;
3625;SDS011;1827;50.534;8.316;2022-10-16T23:53:48;107.17;;;13.60;;
3625;SDS011;1827;50.534;8.316;2022-10-16T23:56:14;156.03;;;13.70;;
3625;SDS011;1827;50.534;8.316;2022-10-16T23:58:40;63.80;;;10.90;;
